Balıkesir, Türkiye

Saat: 08:44 AM EEST Tarih: 28 Mayıs 2015 (GMT +0300)
Balikesir Air Base | | Change Station
CLOSE
Current Station
Hava Meydanı
Location: Balikesir,
Yükseklik: 335 ft
Nearby Weather Stations

Elev 335 ft 39.62 °N, 27.93 °E | Updated 54 minutes ago

Scattered Clouds
Az Bulutlu
63
Feels Like 63
N
0
Rüzgar Değişken Rüzgar from Kuzey

Bugün
High -- | Low -- F°
--% Chance of Precip.
Dün
High -- | Low -- F°
Precip. -- inç
5:44 AM 8:26 PM
Şişkin Ay, 73% visible
Basınç 29.80 inç
Görüş Uzaklığı 6.2 mil
Bulutlar Az Bulutlu 3500 ft
Az Bulutlu 10000 ft
Çiğ noktası 59
Nem oranı 88%
Yağış 0.00 inç
Kar Kalınlığı Not available.
1 out of 12
Pollen Not available.
Hava Kalitesi Not available.
Flu Activity Not available.
METAR LTBF 280450Z 00000KT 9999 SCT035 SCT100 17/15 Q1009 NOSIG

More Conditions Fewer Conditions

Basınç 29.80 inç
Görüş Uzaklığı 6.2 mil
Bulutlar Az Bulutlu 3500 ft
Az Bulutlu 10000 ft
Çiğ noktası 59
Nem oranı 88%
Yağış 0.00 inç
Kar Kalınlığı Not available.
1 out of 12
Pollen Not available.
Hava Kalitesi Not available.
Flu Activity Not available.
METAR LTBF 280450Z 00000KT 9999 SCT035 SCT100 17/15 Q1009 NOSIG

More Conditions Fewer Conditions

10-Day Weather Forecast

Almanac

Gökbilim

May. 28, 2015 Rise Set
Gerçek Zaman
Günlük Tan
Deniz Tanı
Geceyarısı Yıldız Zamanı
Ay
Görünür Işığın Uzunluğu
Günün Uzunluğu
Tomorrow will be .
, % of the Moon is Illuminated

Günün En Yüksekleri

Country Highs Country Lows

Community

WunderPhotos

Upload Photos

1,824,931 photos uploaded!

WunderBlogs® & News

Nearby

Hava Kalitesi

  Hava Kalitesi Hava Kalitesi Endeksi Kirletici
Not available.

Kar Kalınlığı

Station Depth Yükseklik

Earthquake Activity

Şehir Distance Mag. Time & Date
Minimum magnitude displayed is 2.5.

Coastal Water Temperatures

Yer Sıcaklık

Stations

Nearby Weather Stations

Station Location Sıcaklık Rüzgar Etkisi Çiğ noktası Nem oranı Rüzgar Precip. Elev Güncellenme Zamanı Biçim